TAF Switzerland - 23 Oct 2017 - 0947 UTC - RocketRoute WX - rrwx.com
LSMA   LFSB 230500Z 2306/2406 26010KT 9999 FEW020 BKN040 TEMPO 2306/2402 -SHRA PROB40 TEMPO 2306/2309 BKN012 PROB40 TEMPO 2310/2316 28015G25KT 4000 SHRA BECMG 2321/2324 16005KT PROB30 TEMPO 2402/2406 BKN012 LSZB 230825Z 2309/2318 26005KT 9999 SCT020 BKN045 TEMPO 2309/2318 SHRA LSZC AMD 230940Z 2309/2318 VRB03KT 9999 -RA FEW008 SCT036 BKN050 PROB30 TEMPO 2309/2312 4000 SHRA BKN009 LSMD   LSME   LSZR 230825Z 2309/2318 26010KT 9999 FEW020 BKN040 TEMPO 2309/2318 SHRA PROB30 TEMPO 2309/2312 SCT020TCU LSGG 230825Z 2309/2415 23006KT 9999 FEW010 BKN040 TX12/2315Z TN06/2405Z TX12/2415Z TEMPO 2309/2316 RA BECMG 2316/2318 VRB03KT BECMG 2409/2411 05007KT LSZG 230825Z 2309/2318 22010KT 9999 -DZ BKN006 PROB30 TEMPO 2309/2315 4000 SHRA BKN004 LSGC 230825Z 2309/2318 24007KT 9999 OVC009 TEMPO 2309/2318 4000 RA OVC004 LSZL AMD 230722Z 2307/2315 05004KT 9999 FEW080 TEMPO 2309/2315 09015G25KT CAVOK PROB40 TEMPO 2309/2315 09025G35KT LSZA 230825Z 2309/2318 35015G25KT CAVOK PROB30 TEMPO 2309/2311 VRB03KT TEMPO 2309/2318 01020G35KT LSMM   LSMP   LSZS 230825Z 2309/2318 VRB02KT 6000 -SN SCT035 BKN045 TX04/2314Z TEMPO 2309/2318 34015G25KT PROB40 2309/2318 2000 SHSN BKN012 LSGS 230825Z 2309/2318 25005KT 9999 FEW010 SCT030 BKN070 TEMPO 2309/2316 RA LSZH 230825Z 2309/2415 25009KT 9999 SCT010 BKN020 TX11/2313Z TN06/2405Z TX15/2414Z TEMPO 2309/2409 RA PROB40 2320/2401 BKN014 BECMG 2412/2415 FEW030

RocketRoute WX - rrwx.com weather for pilots